Main page
METAR-TAF:

METAR-TAF

Airports :

Teesside International Airport

Durham, England

latitude: 54-31N, longitude: 001-25W, elevation: 37 m

Current weather observation

The report was made 21 minutes ago, at 12:50 UTC
Wind 6 kt from the West/Southwest, varying between South/Southwest and West
Temperature 20°C
Humidity 56%
Pressure 1015 hPa
Visibility 10 km or more
no clouds below 1500 m and no cumulonimbus

METAR: EGNV 211250Z 24006KT 200V280 CAVOK 20/11 Q1015

Time: 14:11 (13:11 UTC)

Forecast

The report was made 2 hours and 14 minutes ago, at 10:57 UTC
Forecast valid from 21 at 12 UTC to 21 at 21 UTC
Wind 7 kt from the West/Southwest
Visibility 10 km or more
no clouds below 1500 m and no cumulonimbus

TAF: EGNV 211057Z 2112/2121 25007KT CAVOK

Weather observations and forecasts of more than 4000 airports (METAR and TAF reports).

The available stations are represented by yellow and red dots on the map.

Hover mouse over dot to see the name of the station.

Then click to see weather observations and forecasts.

To change the map : click on the green buttons with a black cross to zoom in, on the green button with a dash to zoom out, or on the green arrows for adjacent maps.


METAR-TAF: